Terminal Aerodrome Forecast
Issued by NWS Cleveland, OH

Home | Current Version | Previous Version | Graphics & Text | Print | Product List | Glossary Off
Versions: 1 2 3 4 5 6 7 8 9 10 11 12 13 14 15 16 17

000
FTUS41 KCLE 211100
TAFERI
TAF
KERI 211125Z 2112/2212 22006KT P6SM VCSH SCT040 BKN100
     FM211500 26010KT P6SM SCT050 BKN100
     FM220200 VRB03KT P6SM FEW050 BKN100=

USA.gov is the U.S. government's official web portal to all federal, state and local government web resources and services.